Time;durP1;ratioP1;P1;durP2;ratioP2;P2;SDS_P1;SDS_P2;PMS_P1;PMS_P2;Temp;Humidity;BMP_temperature;BMP_pressure;BME280_temperature;BME280_humidity;BME280_pressure;Samples;Min_cycle;Max_cycle;Signal;HPM_P1;HPM_P2
2024/03/01 00:00:06;;;;;;;51.33;24.60;;;3.80;99.90;;;;;;5077166;28;20042;-64
2024/03/01 00:02:52;;;;;;;54.55;26.50;;;3.70;99.90;;;;;;5060978;28;20036;-64
2024/03/01 00:05:38;;;;;;;61.60;27.63;;;3.70;99.90;;;;;;5060043;28;20033;-64
2024/03/01 00:08:24;;;;;;;50.38;24.13;;;3.60;99.90;;;;;;5061064;28;20036;-64
2024/03/01 00:11:10;;;;;;;52.35;24.77;;;3.60;99.90;;;;;;5059869;28;20052;-64
2024/03/01 00:13:55;;;;;;;60.67;27.02;;;3.60;99.90;;;;;;5062738;28;20426;-64
2024/03/01 00:16:41;;;;;;;53.60;24.25;;;3.50;99.90;;;;;;5060472;28;20041;-64
2024/03/01 00:19:27;;;;;;;63.05;27.30;;;3.60;99.90;;;;;;5047905;28;20097;-64
2024/03/01 00:22:13;;;;;;;61.30;26.17;;;3.50;99.90;;;;;;5045694;28;20111;-64
2024/03/01 00:24:59;;;;;;;72.07;29.25;;;3.50;99.90;;;;;;5060962;28;20040;-63
2024/03/01 00:27:45;;;;;;;62.20;25.92;;;3.40;99.90;;;;;;5065124;28;20040;-63
2024/03/01 00:30:31;;;;;;;63.60;27.25;;;3.30;99.90;;;;;;5062634;28;20032;-63
2024/03/01 00:33:16;;;;;;;67.90;28.70;;;3.30;99.90;;;;;;5064187;28;20025;-64
2024/03/01 00:36:03;;;;;;;60.67;27.40;;;3.30;99.90;;;;;;5065377;28;20039;-63
2024/03/01 00:38:49;;;;;;;57.00;24.75;;;3.30;99.90;;;;;;5065480;28;20043;-63
2024/03/01 00:41:34;;;;;;;69.10;28.13;;;3.20;99.90;;;;;;5060272;28;20067;-64
2024/03/01 00:44:21;;;;;;;59.10;27.63;;;;;;;;;;5052158;28;20040;-64
2024/03/01 00:47:07;;;;;;;58.58;25.63;;;;;;;;;;5058537;28;20043;-63
2024/03/01 00:49:53;;;;;;;56.47;26.35;;;;;;;;;;5068470;28;20059;-63
2024/03/01 00:52:40;;;;;;;63.17;26.75;;;;;;;;;;5070527;28;20032;-64
2024/03/01 00:55:26;;;;;;;60.47;28.40;;;;;;;;;;5060140;28;20025;-64
2024/03/01 00:58:12;;;;;;;63.20;27.20;;;;;;;;;;5066776;28;20056;-64
2024/03/01 01:00:58;;;;;;;61.17;26.42;;;;;;;;;;5063706;28;20036;-63
2024/03/01 01:03:45;;;;;;;59.80;27.25;;;;;;;;;;5063802;28;20029;-63
2024/03/01 01:06:31;;;;;;;68.40;28.67;;;;;;;;;;5062468;28;20032;-64
2024/03/01 01:09:17;;;;;;;63.78;28.52;;;;;;;;;;5062371;28;20036;-64
2024/03/01 01:12:04;;;;;;;55.83;25.23;;;;;;;;;;5065788;28;20036;-64
2024/03/01 01:14:50;;;;;;;49.53;21.08;;;;;;;;;;5060453;28;20075;-64
2024/03/01 01:17:36;;;;;;;54.17;24.42;;;;;;;;;;5065606;28;20536;-64
2024/03/01 01:20:23;;;;;;;;;;;;;;;;;;5013976;28;20049;-65
2024/03/01 01:23:09;;;;;;;55.70;24.83;;;;;;;;;;5024278;28;19909;-65
2024/03/01 01:25:56;;;;;;;53.40;24.15;;;;;;;;;;5026173;28;20677;-65
2024/03/01 01:28:42;;;;;;;64.05;26.95;;;;;;;;;;5023915;28;20041;-65
2024/03/01 01:31:29;;;;;;;66.13;26.35;;;;;;;;;;5015241;28;20045;-65
2024/03/01 01:34:15;;;;;;;58.42;25.60;;;;;;;;;;5022458;28;20606;-65
2024/03/01 01:37:03;;;;;;;62.60;25.88;;;;;;;;;;5023593;28;20091;-65
2024/03/01 01:39:49;;;;;;;60.10;25.75;;;;;;;;;;5021706;28;20676;-65
2024/03/01 01:42:36;;;;;;;62.08;27.38;;;;;;;;;;5024331;28;20069;-65
2024/03/01 01:45:22;;;;;;;63.67;27.40;;;;;;;;;;5020278;28;20530;-65
2024/03/01 01:48:08;;;;;;;62.88;27.63;;;;;;;;;;5019403;28;20032;-65
2024/03/01 01:50:55;;;;;;;57.28;27.05;;;;;;;;;;5019461;28;20286;-65
2024/03/01 01:53:42;;;;;;;64.68;27.65;;;;;;;;;;5020506;28;20028;-65
2024/03/01 01:56:29;;;;;;;63.47;27.85;;;;;;;;;;5013576;28;20048;-65
2024/03/01 01:59:15;;;;;;;64.28;27.65;;;;;;;;;;5017249;28;20057;-65
2024/03/01 02:02:03;;;;;;;41.58;19.05;;;;;;;;;;5005796;28;20045;-65
2024/03/01 02:04:50;;;;;;;52.00;23.67;;;;;;;;;;5023297;28;20066;-65
2024/03/01 02:07:39;;;;;;;51.13;24.20;;;;;;;;;;5016364;28;20033;-65
2024/03/01 02:10:25;;;;;;;55.95;25.13;;;;;;;;;;5021447;28;20061;-65
2024/03/01 02:13:18;;;;;;;52.95;26.00;;;;;;;;;;5020962;28;20036;-65
2024/03/01 02:16:05;;;;;;;60.17;26.70;;;;;;;;;;5019558;28;20149;-65
2024/03/01 02:18:52;;;;;;;62.08;27.92;;;;;;;;;;5020445;28;20041;-65
2024/03/01 02:21:39;;;;;;;62.67;28.08;;;;;;;;;;5023614;28;20056;-65
2024/03/01 02:24:25;;;;;;;55.83;25.42;;;;;;;;;;5020273;28;20051;-65
2024/03/01 02:27:12;;;;;;;58.15;27.10;;;;;;;;;;5023880;28;20033;-65
2024/03/01 02:29:58;;;;;;;58.85;26.50;;;;;;;;;;5017333;28;20033;-65
2024/03/01 02:32:46;;;;;;;61.13;25.98;;;;;;;;;;5020968;28;20029;-65
2024/03/01 02:35:32;;;;;;;61.67;26.65;;;;;;;;;;5022813;28;20113;-65
2024/03/01 02:38:18;;;;;;;60.42;25.45;;;;;;;;;;5023201;28;20246;-65
2024/03/01 02:41:05;;;;;;;58.25;25.63;;;;;;;;;;5024774;28;20037;-65
2024/03/01 02:43:51;;;;;;;56.95;26.38;;;;;;;;;;5020858;28;20522;-65
2024/03/01 02:46:37;;;;;;;64.40;26.95;;;;;;;;;;5015275;28;20079;-65
2024/03/01 02:49:24;;;;;;;70.43;27.95;;;;;;;;;;5021246;28;20040;-65
2024/03/01 02:52:10;;;;;;;64.20;27.15;;;;;;;;;;5024627;28;20117;-65
2024/03/01 02:54:56;;;;;;;60.00;27.27;;;;;;;;;;5017429;28;20594;-65
2024/03/01 02:57:43;;;;;;;65.22;27.65;;;;;;;;;;5020655;28;20030;-65
2024/03/01 03:00:29;;;;;;;74.88;32.28;;;;;;;;;;5017271;28;20045;-65
2024/03/01 03:03:15;;;;;;;60.42;27.02;;;;;;;;;;5023202;28;20064;-65
2024/03/01 03:06:01;;;;;;;51.50;21.90;;;;;;;;;;5019519;28;20073;-65
2024/03/01 03:08:48;;;;;;;63.72;28.75;;;;;;;;;;5019183;28;20045;-65
2024/03/01 03:11:34;;;;;;;70.88;29.80;;;;;;;;;;5020928;28;20406;-65
2024/03/01 03:14:20;;;;;;;69.18;29.85;;;;;;;;;;5019909;28;20056;-65
2024/03/01 03:17:07;;;;;;;65.47;27.58;;;;;;;;;;5022396;28;20050;-65
2024/03/01 03:19:53;;;;;;;42.00;20.25;;;;;;;;;;5022954;28;20120;-65
2024/03/01 03:22:40;;;;;;;69.55;28.75;;;;;;;;;;5022578;28;20067;-65
2024/03/01 03:25:26;;;;;;;57.17;25.77;;;;;;;;;;5020772;28;20061;-65
2024/03/01 03:28:14;;;;;;;46.03;19.98;;;;;;;;;;5020239;28;20037;-65
2024/03/01 03:31:01;;;;;;;59.38;25.95;;;;;;;;;;5023092;28;20201;-65
2024/03/01 03:33:47;;;;;;;61.90;26.30;;;;;;;;;;5018908;28;20068;-65
2024/03/01 03:36:33;;;;;;;64.45;27.63;;;;;;;;;;5020039;28;20037;-65
2024/03/01 03:39:20;;;;;;;73.18;28.27;;;;;;;;;;5023588;28;20121;-65
2024/03/01 03:42:06;;;;;;;64.90;27.73;;;;;;;;;;5021676;28;20060;-65
2024/03/01 03:44:52;;;;;;;57.42;26.95;;;;;;;;;;5025625;28;20079;-65
2024/03/01 03:47:40;;;;;;;56.20;26.23;;;;;;;;;;5023759;28;20041;-65
2024/03/01 03:50:26;;;;;;;66.93;28.80;;;;;;;;;;5019929;28;20406;-65
2024/03/01 03:53:12;;;;;;;60.05;25.77;;;;;;;;;;5025855;28;20471;-65
2024/03/01 03:55:58;;;;;;;57.30;24.83;;;;;;;;;;5010791;28;20132;-65
2024/03/01 03:58:45;;;;;;;58.55;24.27;;;;;;;;;;5021939;28;20041;-65
2024/03/01 04:01:31;;;;;;;49.80;23.40;;;;;;;;;;5028662;28;20447;-65
2024/03/01 04:04:17;;;;;;;47.00;20.30;;;;;;;;;;5023322;28;20036;-65
2024/03/01 04:07:04;;;;;;;62.60;25.45;;;;;;;;;;5024841;28;20072;-65
2024/03/01 04:09:51;;;;;;;63.47;26.88;;;;;;;;;;5020248;28;20053;-65
2024/03/01 04:12:37;;;;;;;58.10;25.73;;;;;;;;;;5025097;28;20064;-65
2024/03/01 04:15:24;;;;;;;54.92;23.05;;;;;;;;;;5022436;28;20064;-65
2024/03/01 04:18:10;;;;;;;58.83;23.45;;;;;;;;;;5026410;28;20090;-65
2024/03/01 04:20:57;;;;;;;57.88;24.85;;;;;;;;;;5021864;28;20037;-65
2024/03/01 04:23:44;;;;;;;51.95;23.85;;;;;;;;;;5023235;28;20061;-65
2024/03/01 04:26:30;;;;;;;48.95;23.15;;;;;;;;;;5021688;28;20041;-65
2024/03/01 04:29:16;;;;;;;53.97;23.95;;;;;;;;;;5021942;28;20055;-65
2024/03/01 04:32:03;;;;;;;53.13;23.23;;;;;;;;;;5026499;28;20037;-65
2024/03/01 04:34:49;;;;;;;;;;;;;;;;;;5017040;28;20143;-65
2024/03/01 04:37:36;;;;;;;40.75;19.88;;;;;;;;;;5024765;28;20048;-65
2024/03/01 04:40:22;;;;;;;46.95;21.98;;;;;;;;;;5024220;28;20080;-65
2024/03/01 04:43:08;;;;;;;60.92;23.83;;;;;;;;;;5024344;28;20045;-65
2024/03/01 04:45:55;;;;;;;56.00;25.30;;;;;;;;;;5025117;28;20052;-65
2024/03/01 04:48:41;;;;;;;48.28;22.15;;;;;;;;;;5021585;28;20534;-65
2024/03/01 04:51:28;;;;;;;50.65;22.85;;;;;;;;;;5022091;28;20032;-65
2024/03/01 04:54:15;;;;;;;53.30;23.27;;;;;;;;;;5026180;28;20083;-65
2024/03/01 04:57:05;;;;;;;44.67;22.65;;;;;;;;;;5017527;28;20091;-65
2024/03/01 04:59:52;;;;;;;49.47;22.20;;;;;;;;;;5022906;28;20045;-65
2024/03/01 05:02:40;;;;;;;49.47;22.52;;;;;;;;;;5016511;28;20123;-65
2024/03/01 05:05:27;;;;;;;44.28;21.25;;;;;;;;;;5023095;28;20128;-65
2024/03/01 05:08:13;;;;;;;48.28;23.08;;;;;;;;;;5021630;28;20037;-65
2024/03/01 05:10:59;;;;;;;47.05;21.00;;;;;;;;;;5022721;28;20041;-65
2024/03/01 05:13:45;;;;;;;43.65;20.45;;;;;;;;;;5020202;28;20065;-67
2024/03/01 05:16:32;;;;;;;47.97;21.42;;;;;;;;;;5013672;28;20057;-66
2024/03/01 05:19:18;;;;;;;34.55;18.40;;;;;;;;;;5023182;28;20041;-65
2024/03/01 05:22:05;;;;;;;41.38;19.63;;;;;;;;;;5020656;28;20033;-65
2024/03/01 05:24:51;;;;;;;;;;;;;;;;;;5021861;28;20029;-65
2024/03/01 05:27:38;;;;;;;33.70;16.50;;;;;;;;;;5022287;28;19913;-65
2024/03/01 05:30:26;;;;;;;36.13;18.48;;;;;;;;;;5020403;28;20037;-65
2024/03/01 05:33:12;;;;;;;42.65;19.45;;;;;;;;;;5022796;28;20037;-65
2024/03/01 05:35:58;;;;;;;38.92;18.25;;;;;;;;;;5023864;28;20045;-65
2024/03/01 05:38:45;;;;;;;34.67;16.73;;;;;;;;;;5023265;28;20112;-65
2024/03/01 05:41:31;;;;;;;43.35;20.40;;;;;;;;;;5024566;28;20047;-65
2024/03/01 05:44:18;;;;;;;40.30;18.30;;;;;;;;;;5021561;28;20203;-64
2024/03/01 05:47:04;;;;;;;38.53;18.48;;;;;;;;;;5013160;28;20037;-64
2024/03/01 05:49:50;;;;;;;34.20;17.42;;;;;;;;;;5022232;28;20551;-64
2024/03/01 05:52:37;;;;;;;41.97;18.65;;;;;;;;;;5018041;28;20079;-64
2024/03/01 05:55:24;;;;;;;33.88;16.05;;;;;;;;;;5022138;28;20052;-64
2024/03/01 05:58:10;;;;;;;33.70;15.60;;;;;;;;;;5023449;28;20175;-65
2024/03/01 06:00:57;;;;;;;33.50;15.95;;;;;;;;;;5021076;28;20091;-65
2024/03/01 06:03:43;;;;;;;32.03;15.80;;;;;;;;;;5024202;28;20108;-64
2024/03/01 06:06:30;;;;;;;33.25;15.98;;;;;;;;;;5024403;28;20042;-64
2024/03/01 06:09:17;;;;;;;31.02;14.57;;;;;;;;;;5024842;28;20109;-64
2024/03/01 06:12:04;;;;;;;30.75;14.98;;;;;;;;;;5022357;28;20760;-64
2024/03/01 06:14:50;;;;;;;35.70;16.13;;;;;;;;;;5019191;28;20293;-64
2024/03/01 06:17:36;;;;;;;37.25;16.50;;;;;;;;;;5023824;28;20560;-64
2024/03/01 06:20:23;;;;;;;27.10;13.82;;;;;;;;;;5022752;28;20049;-64
2024/03/01 06:23:09;;;;;;;29.92;14.80;;;;;;;;;;5019918;28;20030;-64
2024/03/01 06:25:56;;;;;;;29.10;13.73;;;;;;;;;;5020591;28;20608;-65
2024/03/01 06:28:42;;;;;;;30.88;13.60;;;;;;;;;;5005839;28;20040;-65
2024/03/01 06:31:29;;;;;;;32.25;15.82;;;;;;;;;;5021142;28;20114;-65
2024/03/01 06:34:15;;;;;;;29.80;14.88;;;;;;;;;;5021232;28;20116;-65
2024/03/01 06:37:02;;;;;;;27.60;13.77;;;;;;;;;;5019991;28;20072;-65
2024/03/01 06:39:48;;;;;;;36.40;18.42;;;;;;;;;;5015068;28;20033;-65
2024/03/01 06:42:35;;;;;;;33.33;16.17;;;;;;;;;;5019355;28;20043;-65
2024/03/01 06:45:21;;;;;;;34.97;17.08;;;;;;;;;;5004527;28;20037;-65
2024/03/01 06:48:07;;;;;;;38.63;17.60;;;;;;;;;;5024688;28;20072;-65
2024/03/01 06:50:54;;;;;;;34.85;16.58;;;;;;;;;;5018087;28;20681;-63
2024/03/01 06:53:42;;;;;;;35.45;16.25;;;;;;;;;;5018361;28;20041;-62
2024/03/01 06:56:28;;;;;;;31.13;15.63;;;;;;;;;;5020931;28;20041;-62
2024/03/01 06:59:14;;;;;;;35.55;14.57;;;;;;;;;;5008092;28;20037;-63
2024/03/01 07:02:01;;;;;;;32.15;15.15;;;;;;;;;;5020316;28;20041;-63
2024/03/01 07:04:48;;;;;;;33.55;14.88;;;;;;;;;;5019610;28;20040;-63
2024/03/01 07:07:34;;;;;;;29.48;15.73;;;;;;;;;;5017306;28;20045;-65
2024/03/01 07:10:20;;;;;;;31.63;14.88;;;;;;;;;;5024097;28;20037;-65
2024/03/01 07:13:06;;;;;;;31.45;14.63;;;;;;;;;;5018760;28;20033;-65
2024/03/01 07:15:53;;;;;;;30.10;15.88;;;;;;;;;;5019182;28;20212;-66
2024/03/01 07:18:39;;;;;;;24.35;13.20;;;;;;;;;;5021700;28;20037;-67
2024/03/01 07:21:25;;;;;;;29.42;14.35;;;;;;;;;;5005409;23;20057;-66
2024/03/01 07:24:12;;;;;;;22.15;11.73;;;;;;;;;;4984715;28;20141;-66
2024/03/01 07:26:59;;;;;;;;;;;;;;;;;;4967363;28;20055;-65
2024/03/01 07:29:45;;;;;;;20.77;10.23;;;;;;;;;;4972564;28;20477;-66
2024/03/01 07:32:31;;;;;;;19.80;10.77;;;;;;;;;;4968304;28;20043;-66
2024/03/01 07:35:18;;;;;;;22.70;11.65;;;;;;;;;;4969206;28;20041;-67
2024/03/01 07:38:04;;;;;;;20.02;10.98;;;;;;;;;;4968071;28;20056;-65
2024/03/01 07:40:50;;;;;;;24.27;13.13;;;;;;;;;;4966954;28;20033;-65
2024/03/01 07:43:37;;;;;;;21.08;12.77;;;;;;;;;;4967330;28;20114;-66
2024/03/01 07:46:23;;;;;;;19.23;10.98;;;;;;;;;;4969341;28;20042;-66
2024/03/01 07:49:09;;;;;;;22.13;11.38;;;;;;;;;;4971288;28;20092;-66
2024/03/01 07:51:56;;;;;;;20.63;11.27;;;;;;;;;;4967922;28;20038;-66
2024/03/01 07:54:43;;;;;;;23.45;12.32;;;;;;;;;;4964621;28;20034;-66
2024/03/01 07:57:29;;;;;;;16.17;8.75;;;;;;;;;;4969382;28;20125;-66
2024/03/01 08:00:16;;;;;;;19.98;8.95;;;;;;;;;;4966752;28;20113;-65
2024/03/01 08:03:02;;;;;;;;;;;;;;;;;;4967282;28;20105;-66
2024/03/01 08:05:48;;;;;;;15.50;7.95;;;;;;;;;;4964939;28;20348;-65
2024/03/01 08:08:38;;;;;;;14.80;8.27;;;;;;;;;;4968104;28;20822;-65
2024/03/01 08:11:37;;;;;;;13.30;7.70;;;;;;;;;;4968616;28;20177;-66
2024/03/01 08:14:34;;;;;;;13.98;7.90;;;;;;;;;;4966707;28;20041;-66
2024/03/01 08:17:20;;;;;;;14.13;7.85;;;;;;;;;;4968008;28;20042;-66
2024/03/01 08:20:21;;;;;;;15.70;8.65;;;;;;;;;;4967301;28;20125;-65
2024/03/01 08:23:09;;;;;;;14.23;7.40;;;;;;;;;;4965571;28;20045;-64
2024/03/01 08:25:56;;;;;;;19.42;9.43;;;;;;;;;;4967554;28;20403;-65
2024/03/01 08:28:44;;;;;;;21.25;9.23;;;;;;;;;;4966582;28;20042;-65
2024/03/01 08:31:34;;;;;;;19.17;10.52;;;;;;;;;;4969012;28;20109;-65
2024/03/01 08:34:24;;;;;;;20.05;10.20;;;;;;;;;;4967464;28;20038;-65
2024/03/01 08:37:15;;;;;;;19.98;11.02;;;;;;;;;;4968959;28;20027;-65
2024/03/01 08:40:04;;;;;;;24.80;11.10;;;;;;;;;;4965240;28;20046;-65
2024/03/01 08:42:51;;;;;;;22.65;10.82;;;;;;;;;;4968762;28;20034;-65
2024/03/01 08:45:46;;;;;;;19.15;11.02;;;;;;;;;;4966631;28;20133;-65
2024/03/01 08:48:33;;;;;;;24.15;11.20;;;;;;;;;;4967035;28;20496;-65
2024/03/01 08:51:19;;;;;;;23.63;11.07;;;;;;;;;;4967934;28;20037;-65
2024/03/01 08:54:06;;;;;;;20.35;10.68;;;;;;;;;;4967531;28;20431;-65
2024/03/01 08:57:01;;;;;;;23.58;12.10;;;;;;;;;;4959893;28;20053;-65
2024/03/01 08:59:49;;;;;;;25.80;12.32;;;;;;;;;;4962919;28;20413;-65
2024/03/01 09:02:46;;;;;;;23.60;12.82;;;;;;;;;;4966491;28;20043;-65
2024/03/01 09:05:35;;;;;;;23.20;11.55;;;;;;;;;;4966844;28;20039;-65
2024/03/01 09:08:36;;;;;;;21.13;11.15;;;;;;;;;;4967889;28;20091;-65
2024/03/01 09:11:22;;;;;;;19.42;10.27;;;;;;;;;;4966658;28;20057;-65
2024/03/01 09:14:14;;;;;;;20.27;10.77;;;;;;;;;;4967078;28;20039;-65
2024/03/01 09:17:01;;;;;;;21.33;11.18;;;;;;;;;;4963740;28;20039;-65
2024/03/01 09:19:48;;;;;;;23.70;11.38;;;;;;;;;;4966616;28;20038;-64
2024/03/01 09:22:34;;;;;;;22.10;11.63;;;;;;;;;;4971650;28;20109;-65
2024/03/01 09:25:35;;;;;;;20.70;11.60;;;;;;;;;;4963212;28;20047;-65
2024/03/01 09:28:22;;;;;;;19.50;10.20;;;;;;;;;;4965424;28;20503;-65
2024/03/01 09:31:08;;;;;;;19.15;10.90;;;;;;;;;;4963579;28;20031;-65
2024/03/01 09:33:55;;;;;;;16.45;9.63;;;;;;;;;;4962514;28;20085;-65
2024/03/01 09:36:41;;;;;;;17.75;9.80;;;;;;;;;;4964202;28;20051;-65
2024/03/01 09:39:30;;;;;;;21.00;10.55;;;;;;;;;;4965025;28;20034;-65
2024/03/01 09:42:16;;;;;;;19.88;10.07;;;;;;;;;;4957578;28;20043;-65
2024/03/01 09:45:09;;;;;;;18.48;9.80;;;;;;;;;;4963223;28;20050;-65
2024/03/01 09:48:05;;;;;;;19.98;10.40;;;;;;;;;;4968410;28;20121;-65
2024/03/01 09:50:51;;;;;;;17.73;9.73;;;;;;;;;;4965737;28;20061;-64
2024/03/01 09:53:52;;;;;;;19.02;10.30;;;;;;;;;;4970070;28;20130;-64
2024/03/01 09:56:41;;;;;;;18.13;9.55;;;;;;;;;;4968961;28;20042;-64
2024/03/01 09:59:33;;;;;;;18.25;9.77;;;;;;;;;;4967610;28;20117;-64
2024/03/01 10:02:22;;;;;;;20.25;9.63;;;;;;;;;;4958514;28;20053;-64
2024/03/01 10:05:11;;;;;;;17.80;9.45;;;;;;;;;;4963620;28;20109;-64
2024/03/01 10:08:09;;;;;;;18.65;9.82;;;;;;;;;;4967797;28;20389;-64
2024/03/01 10:11:15;;;;;;;21.30;11.73;;;;;;;;;;4949470;28;20110;-64
2024/03/01 10:14:11;;;;;;;17.45;9.30;;;;;;;;;;4962833;28;20526;-64
2024/03/01 10:17:22;;;;;;;18.80;10.73;;;;;;;;;;4947925;28;20045;-64
2024/03/01 10:20:09;;;;;;;16.98;9.93;;;;;;;;;;4976039;28;20035;-64
2024/03/01 10:23:04;;;;;;;19.90;9.73;;;;;;;;;;4965787;28;20037;-64
2024/03/01 10:26:04;;;;;;;15.60;9.20;;;;;;;;;;4961786;28;20089;-63
2024/03/01 10:28:50;;;;;;;15.90;8.85;;;;;;;;;;4969954;28;20404;-64
2024/03/01 10:31:56;;;;;;;14.65;9.20;;;;;;;;;;4964224;28;20039;-64
2024/03/01 10:34:58;;;;;;;18.60;9.65;;;;;;;;;;4968652;28;20043;-64
2024/03/01 10:38:03;;;;;;;17.55;9.10;;;;;;;;;;4968110;28;20043;-64
2024/03/01 10:41:11;;;;;;;14.48;8.90;;;;;;;;;;4952854;28;20030;-64
2024/03/01 10:44:12;;;;;;;14.93;8.75;;;;;;;;;;4966043;28;20118;-64
2024/03/01 10:47:25;;;;;;;17.30;9.10;;;;;;;;;;4966131;28;20041;-64
2024/03/01 10:50:11;;;;;;;16.90;9.15;;;;;;;;;;4965500;28;20039;-64
2024/03/01 10:53:06;;;;;;;18.13;9.30;;;;;;;;;;4964439;28;20022;-64
2024/03/01 10:55:57;;;;;;;14.48;8.43;;;;;;;;;;4966227;28;20026;-64
2024/03/01 10:58:49;;;;;;;14.63;7.65;;;;;;;;;;4968274;28;20463;-65
2024/03/01 11:01:37;;;;;;;14.65;7.88;;;;;;;;;;4963566;28;20035;-64
2024/03/01 11:04:50;;;;;;;16.55;8.55;;;;;;;;;;4960318;28;20065;-64
2024/03/01 11:07:39;;;;;;;15.85;8.70;;;;;;;;;;4966448;28;20049;-64
2024/03/01 11:10:28;;;;;;;19.90;8.88;;;;;;;;;;4964275;28;20038;-63
2024/03/01 11:13:17;;;;;;;17.10;8.40;;;;;;;;;;4964477;28;20031;-68
2024/03/01 11:16:05;;;;;;;17.90;7.80;;;;;;;;;;4962795;28;20408;-65
2024/03/01 11:18:54;;;;;;;13.48;7.95;;;;;;;;;;4965031;28;20130;-64
2024/03/01 11:21:44;;;;;;;12.93;7.78;;;;;;;;;;4964095;28;20043;-65
2024/03/01 11:24:31;;;;;;;14.25;7.10;;;;;;;;;;4971320;28;20066;-63
2024/03/01 11:27:22;;;;;;;11.73;6.80;;;;;;;;;;4963200;28;20089;-63
2024/03/01 11:30:11;;;;;;;13.65;7.43;;;;;;;;;;4980547;28;20109;-63
2024/03/01 11:33:01;;;;;;;18.08;7.05;;;;;;;;;;4964497;28;20045;-63
2024/03/01 11:35:51;;;;;;;12.43;7.05;;;;;;;;;;4966041;28;20113;-63
2024/03/01 11:38:46;;;;;;;11.50;6.30;;;;;;;;;;4964619;28;20042;-63
2024/03/01 11:41:33;;;;;;;12.77;6.72;;;;;;;;;;4965189;28;20031;-63
2024/03/01 11:44:42;;;;;;;13.07;7.38;;;;;;;;;;4968320;28;20030;-63
2024/03/01 11:47:38;;;;;;;14.45;7.82;;;;;;;;;;4963849;28;20638;-63
2024/03/01 11:50:34;;;;;;;13.60;7.35;;;;;;;;;;4966080;28;20035;-63
2024/03/01 11:53:29;;;;;;;15.75;8.35;;;;;;;;;;4965402;28;20085;-63
2024/03/01 11:56:28;;;;;;;16.92;9.23;;;;;;;;;;4964848;28;20672;-63
2024/03/01 11:59:28;;;;;;;21.42;8.23;;;;;;;;;;4964443;28;20645;-63
2024/03/01 12:02:18;;;;;;;15.13;8.23;;;;;;;;;;4961648;28;20061;-63
2024/03/01 12:05:26;;;;;;;17.63;8.02;;;;;;;;;;4963103;28;20049;-63
2024/03/01 12:08:33;;;;;;;13.63;7.05;;;;;;;;;;4964628;28;20062;-63
2024/03/01 12:11:30;;;;;;;11.00;7.17;;;;;;;;;;4963897;28;20464;-63
2024/03/01 12:14:20;;;;;;;15.43;8.32;;;;;;;;;;4963818;28;20031;-63
2024/03/01 12:17:13;;;;;;;13.25;7.38;;;;;;;;;;4964702;28;20129;-63
2024/03/01 12:20:05;;;;;;;15.40;7.97;;;;;;;;;;4968234;28;20046;-63
2024/03/01 12:23:14;;;;;;;14.68;8.40;;;;;;;;;;4964445;28;20070;-63
2024/03/01 12:26:00;;;;;;;14.23;7.47;;;;;;;;;;4968380;28;20042;-63
2024/03/01 12:28:53;;;;;;;15.43;8.13;;;;;;;;;;4967942;28;20165;-62
2024/03/01 12:31:48;;;;;;;14.07;7.97;;;;;;;;;;4968344;28;20034;-63
2024/03/01 12:34:41;;;;;;;11.57;6.38;;;;;;;;;;4968543;28;20443;-63
2024/03/01 12:37:46;;;;;;;12.15;6.82;;;;;;;;;;4967661;28;20038;-63
2024/03/01 12:40:38;;;;;;;12.32;6.45;;;;;;;;;;4967485;28;20085;-63
2024/03/01 12:43:45;;;;;;;12.80;6.95;;;;;;;;;;4966381;28;20034;-63
2024/03/01 12:46:45;;;;;;;10.02;5.97;;;;;;;;;;4969735;28;20105;-63
2024/03/01 12:49:37;;;;;;;9.98;5.90;;;;;;;;;;4966919;28;20039;-63
2024/03/01 12:52:42;;;;;;;11.20;5.95;;;;;;;;;;4965089;28;20038;-63
2024/03/01 12:55:36;;;;;;;10.63;6.32;;;;;;;;;;4968197;28;20030;-63
2024/03/01 12:58:35;;;;;;;14.73;6.30;;;;;;;;;;4966918;28;20101;-63
2024/03/01 13:01:31;;;;;;;12.55;6.20;;;;;;;;;;4967111;28;20515;-63
2024/03/01 13:04:21;;;;;;;14.95;6.93;;;;;;;;;;4966445;28;20089;-62
2024/03/01 13:07:08;;;;;;;13.88;5.78;;;;;;;;;;4966883;28;20507;-63
2024/03/01 13:09:56;;;;;;;10.85;6.22;;;;;;;;;;4966018;28;20030;-63
2024/03/01 13:12:43;;;;;;;16.98;6.13;;;;;;;;;;4961328;28;20089;-63
2024/03/01 13:15:36;;;;;;;10.68;5.70;;;;;;;;;;4966227;28;20056;-63
2024/03/01 13:18:25;;;;;;;13.20;6.00;;;;;;;;;;4966638;28;20078;-63
2024/03/01 13:21:26;;;;;;;11.45;5.57;;;;;;;;;;5003299;23;20057;-65
2024/03/01 13:24:31;;;;;;;10.07;5.55;;;;;;;;;;5022867;28;20037;-65
2024/03/01 13:27:37;;;;;;;21.08;5.97;;;;;;;;;;5002604;28;20033;-65
2024/03/01 13:30:24;;;;;;;11.82;6.78;;;;;;;;;;5003389;28;20085;-64
2024/03/01 13:33:30;;;;;;;10.02;5.60;;;;;;;;;;5005222;28;20032;-64
2024/03/01 13:36:28;;;;;;;9.25;5.30;;;;;;;;;;4993923;28;20479;-64
2024/03/01 13:39:21;;;;;;;11.23;5.60;;;;;;;;;;5003151;28;20041;-64
2024/03/01 13:42:18;;;;;;;13.82;5.63;;;;;;;;;;4985617;28;20068;-65
2024/03/01 13:45:11;;;;;;;;;;;;;;;;;;5003351;28;20064;-65
2024/03/01 13:48:12;;;;;;;12.20;5.78;;;;;;;;;;5003665;28;19948;-64
2024/03/01 13:51:00;;;;;;;10.07;5.13;;;;;;;;;;4999491;28;20033;-64
2024/03/01 13:53:46;;;;;;;10.95;5.13;;;;;;;;;;4999803;28;20029;-65
2024/03/01 13:56:36;;;;;;;8.38;5.10;;;;;;;;;;5000720;28;20383;-65
2024/03/01 13:59:22;;;;;;;9.10;4.72;;;;;;;;;;4995821;28;20136;-65
2024/03/01 14:02:11;;;;;;;10.90;4.72;;;;;;;;;;5001404;28;20061;-65
2024/03/01 14:05:00;;;;;;;14.63;5.47;;;;;;;;;;4999288;28;20531;-65
2024/03/01 14:07:47;;;;;;;8.45;5.25;;;;;;;;;;5002267;28;20498;-65
2024/03/01 14:10:36;;;;;;;8.27;4.90;;;;;;;;;;5002863;28;20042;-65
2024/03/01 14:13:26;;;;;;;10.70;5.05;;;;;;;;;;5002701;28;20042;-65
2024/03/01 14:16:12;;;;;;;10.18;4.90;;;;;;;;;;4995305;28;20045;-65
2024/03/01 14:19:00;;;;;;;8.43;4.80;;;;;;;;;;4998967;28;20072;-65
2024/03/01 14:21:46;;;;;;;7.38;4.57;;;;;;;;;;4995443;28;20165;-65
2024/03/01 14:24:33;;;;;;;7.30;4.50;;;;;;;;;;4988676;28;20057;-65
2024/03/01 14:27:22;;;;;;;9.05;4.05;;;;;;;;;;4989531;28;20088;-65
2024/03/01 14:30:15;;;;;;;6.05;3.78;;;;;;;;;;4999592;28;20076;-65
2024/03/01 14:33:08;;;;;;;8.32;4.03;;;;;;;;;;4997007;28;20053;-65
2024/03/01 14:36:07;;;;;;;9.32;5.97;;;;;;;;;;5000654;28;20034;-65
2024/03/01 14:38:57;;;;;;;11.73;6.40;;;;;;;;;;5003228;28;20030;-65
2024/03/01 14:41:44;;;;;;;15.63;5.00;;;;;;;;;;5003265;28;20032;-65
2024/03/01 14:44:30;;;;;;;9.52;5.57;;;;;;;;;;5001631;28;20034;-65
2024/03/01 14:47:22;;;;;;;10.57;6.22;;;;;;;;;;5000254;28;20034;-65
2024/03/01 14:50:19;;;;;;;9.27;5.88;;;;;;;;;;4999144;28;20061;-65
2024/03/01 14:53:09;;;;;;;13.32;6.50;;;;;;;;;;4999201;28;20065;-65
2024/03/01 14:55:55;;;;;;;10.77;5.45;;;;;;;;;;4996836;28;20101;-65
2024/03/01 14:58:41;;;;;;;11.68;5.60;;;;;;;;;;5003607;28;20363;-65
2024/03/01 15:01:28;;;;;;;9.95;5.32;;;;;;;;;;5002748;28;20635;-65
2024/03/01 15:04:15;;;;;;;10.02;5.40;;;;;;;;;;5003428;28;20038;-65
2024/03/01 15:07:03;;;;;;;10.00;6.07;;;;;;;;;;4989313;28;20096;-65
2024/03/01 15:09:50;;;;;;;8.30;5.30;;;;;;;;;;4978985;28;20041;-65
2024/03/01 15:12:36;;;;;;;9.50;6.13;;;;;;;;;;4991018;28;20030;-65
2024/03/01 15:15:23;;;;;;;11.45;6.10;;;;;;;;;;5002415;28;20057;-65
2024/03/01 15:18:09;;;;;;;;;;;;;;;;;;4988604;28;20117;-65
2024/03/01 15:20:56;;;;;;;11.75;5.93;;;;;;;;;;4996347;28;19923;-65
2024/03/01 15:23:43;;;;;;;11.75;6.30;;;;;;;;;;4997967;28;20052;-65
2024/03/01 15:26:30;;;;;;;8.57;5.40;;;;;;;;;;5000396;28;20447;-65
2024/03/01 15:29:18;;;;;;;14.07;6.70;;;;;;;;;;4994476;28;20045;-65
2024/03/01 15:32:04;;;;;;;11.27;6.03;;;;;;;;;;5004915;28;20033;-65
2024/03/01 15:34:50;;;;;;;7.90;5.20;;;;;;;;;;4997790;28;20056;-65
2024/03/01 15:37:37;;;;;;;9.10;5.18;;;;;;;;;;5001921;28;20439;-65
2024/03/01 15:40:23;;;;;;;7.43;4.78;;;;;;;;;;4995232;28;20057;-65
2024/03/01 15:43:10;;;;;;;7.35;4.68;;;;;;;;;;5002125;28;20125;-65
2024/03/01 15:45:56;;;;;;;9.73;5.40;;;;;;;;;;5000500;28;20100;-65
2024/03/01 15:48:42;;;;;;;10.52;5.18;;;;;;;;;;5008121;28;20042;-65
2024/03/01 15:51:28;;;;;;;13.45;5.68;;;;;;;;;;5002817;28;20041;-64
2024/03/01 15:54:15;;;;;;;8.82;5.30;;;;;;;;;;5006966;28;20069;-65
2024/03/01 15:57:02;;;;;;;11.23;5.40;;;;;;;;;;5001013;28;20033;-64
2024/03/01 15:59:48;;;;;;;10.05;5.72;;;;;;;;;;5007558;28;20038;-65
2024/03/01 16:02:35;;;;;;;7.72;4.63;;;;;;;;;;5005326;28;20053;-65
2024/03/01 16:05:21;;;;;;;10.45;4.85;;;;;;;;;;5004835;28;20034;-65
2024/03/01 16:08:18;;;;;;;8.63;4.57;;;;;;;;;;5007387;28;20514;-65
2024/03/01 16:11:04;;;;;;;9.85;5.13;;;;;;;;;;4998967;28;20142;-65
2024/03/01 16:13:51;;;;;;;10.90;4.65;;;;;;;;;;5002228;28;20033;-65
2024/03/01 16:16:37;;;;;;;;;;;;;;;;;;5004802;28;20069;-65
2024/03/01 16:19:24;;;;;;;6.78;4.40;;;;;;;;;;5007738;28;19971;-65
2024/03/01 16:22:10;;;;;;;7.55;4.53;;;;;;;;;;5005160;28;20038;-65
2024/03/01 16:24:57;;;;;;;6.93;4.55;;;;;;;;;;5005149;28;20044;-65
2024/03/01 16:27:44;;;;;;;;;;;;;;;;;;5002939;28;20033;-65